Flight Track Log - Related Links

Times and Time Zones

All times are in EDT time to prevent confusion due to time zone crossing. See the FFT919 flight status page for this flight to view local times or setup timezone preferences in your user account.

Time Position Orientation Groundspeed Altitude Reporting Facility
EDT Latitude Longitude Course Direction KTS MPH feet Rate Location/Type
Wed 06:53:33 AM 40.2667 -74.8333 217° Southwest 122 140 700  Level Philadelphia TRACON
Wed 06:54:15 AM 40.2333 -74.8667 217° Southwest 188 216 1,700 2,118 Climbing Philadelphia TRACON
Wed 06:55:15 AM 40.1833 -74.9167 217° Southwest 296 341 4,300 2,600 Climbing Philadelphia TRACON
Wed 06:56:15 AM 40.1167 -74.9667 210° Southwest 282 325 6,900 1,350 Climbing Philadelphia TRACON
Wed 06:57:15 AM 40.0500 -75.0167 210° Southwest 290 334 7,000 1,300 Climbing Philadelphia TRACON
Wed 06:58:15 AM 39.9667 -75.0667 205° Southwest 294 338 9,500 1,500 Climbing Philadelphia TRACON
Wed 06:59:15 AM 39.9000 -75.1167 210° Southwest 320 368 10,000 867 Climbing Philadelphia TRACON
Wed 07:01:01 AM 39.7464 -75.2272 209° Southwest 406 467 11,900 773 Climbing Washington Center
Wed 07:01:58 AM 39.6589 -75.2897 209° Southwest 394 453 12,100 1,322 Climbing Washington Center
Wed 07:02:59 AM 39.5592 -75.3225 194° South 381 438 14,500 1,869 Climbing Washington Center
Wed 07:04:00 AM 39.4383 -75.3417 187° South 383 441 15,900 1,131 Climbing Washington Center
Wed 07:05:01 AM 39.3319 -75.3581 187° South 389 448 16,800 500 Climbing Washington Center
Wed 07:06:00 AM 39.2236 -75.3800 189° South 389 448 16,900 555 Climbing Washington Center
Wed 07:07:00 AM 39.1133 -75.3964 187° South 389 448 17,900 1,587 Climbing Washington Center
Wed 07:08:01 AM 39.0047 -75.4153 188° South 389 448 20,100 1,537 Climbing Washington Center
Wed 07:09:01 AM 38.8903 -75.4317 186° South 402 463 21,000 508 Climbing Washington Center
Wed 07:09:59 AM 38.7778 -75.4506 187° South 409 471 21,100 1,068 Climbing Washington Center
Wed 07:10:59 AM 38.6714 -75.5144 205° Southwest 407 468 23,100 2,000 Climbing Washington Center
Wed 07:11:59 AM 38.5714 -75.5917 211° Southwest 412 474 25,100 1,835 Climbing Washington Center
Wed 07:13:00 AM 38.4631 -75.6633 207° Southwest 424 488 26,800 1,820 Climbing Washington Center
Wed 07:14:01 AM 38.3567 -75.7372 209° Southwest 437 503 28,800 2,218 Climbing Washington Center
Wed 07:14:59 AM 38.2522 -75.8086 208° Southwest 437 503 31,200 1,600 Climbing Washington Center
Wed 07:16:01 AM 38.1497 -75.8794 209° Southwest 437 503 32,000 403 Climbing Washington Center
Wed 07:16:58 AM 38.0475 -75.9531 210° Southwest 437 503 32,000  Level Washington Center
Wed 07:17:59 AM 37.9431 -76.0261 209° Southwest 431 496 32,000  Level Washington Center
Wed 07:19:00 AM 37.8300 -76.1019 208° Southwest 444 511 32,000  Level Washington Center
Wed 07:19:59 AM 37.7192 -76.1800 209° Southwest 455 524 32,000 -403 Level Washington Center
Wed 07:20:59 AM 37.6061 -76.2578 209° Southwest 462 532 31,200 -1,550 Descending Washington Center
Wed 07:21:59 AM 37.4953 -76.3353 209° Southwest 462 532 28,900 -2,213 Descending Washington Center
Wed 07:23:01 AM 37.3861 -76.4075 208° Southwest 456 525 26,700 -2,200 Descending Washington Center
Wed 07:23:59 AM 37.2814 -76.4794 209° Southwest 444 511 24,500 -1,513 Descending Washington Center
Wed 07:25:00 AM 37.2014 -76.5853 227° Southwest 420 483 23,700 -645 Descending Washington Center
Wed 07:26:00 AM 37.1294 -76.6964 231° Southwest 420 483 23,200 -347 Descending Washington Center
Wed 07:27:01 AM 37.0617 -76.8047 232° Southwest 413 475 23,000 -101 Descending Washington Center
Wed 07:27:59 AM 36.9958 -76.9078 231° Southwest 398 458 23,000  Level Washington Center
Wed 07:29:01 AM 36.9239 -77.0131 229° Southwest 398 458 23,000 -450 Level Washington Center
Wed 07:29:59 AM 36.8578 -77.1183 232° Southwest 393 452 22,100 -857 Descending Washington Center
Wed 07:31:00 AM 36.7897 -77.2233 231° Southwest 393 452 21,300 -541 Descending Washington Center
Wed 07:32:01 AM 36.7214 -77.3281 231° Southwest 393 452 21,000 -151 Descending Washington Center
Wed 07:32:59 AM 36.6531 -77.4353 232° Southwest 393 452 21,000  Level Washington Center
Wed 07:34:00 AM 36.5847 -77.5397 231° Southwest 393 452 21,000  Level Washington Center
Wed 07:35:00 AM 36.5161 -77.6414 230° Southwest 393 452 21,000  Level Washington Center
Wed 07:36:01 AM 36.4475 -77.7481 231° Southwest 393 452 21,000 -1,109 Level Washington Center
Wed 07:36:59 AM 36.3789 -77.8519 231° Southwest 393 452 18,800 -2,200 Descending Washington Center
Wed 07:37:31 AM 36.3403 -77.9075 229° Southwest 400 460 17,700 -1,935 Descending Washington Center
Wed 07:38:01 AM 36.3100 -77.9583 234° Southwest 393 452 16,800 -1,733 Descending Washington Center
Wed 07:39:01 AM 36.2453 -78.0592 232° Southwest 387 445 15,100 -1,641 Descending Washington Center
Wed 07:39:58 AM 36.1789 -78.1525 229° Southwest 382 440 13,600 -1,475 Descending Washington Center
Wed 07:40:59 AM 36.1306 -78.2536 239° Southwest 354 407 12,200 -1,339 Descending Washington Center
Wed 07:41:59 AM 36.0806 -78.3522 238° Southwest 343 395 10,900 -1,180 Descending Washington Center
Wed 07:43:01 AM 36.0386 -78.4406 240° Southwest 336 387 9,800 -1,240 Descending Washington Center
Wed 07:44:00 AM 35.9906 -78.5364 238° Southwest 326 375 8,400 -900 Descending Washington Center
Wed 07:45:01 AM 35.9242 -78.6058 220° Southwest 316 364 8,000 -202 Descending Washington Center
Wed 07:45:59 AM 35.8578 -78.6675 217° Southwest 311 358 8,000 -508 Level Washington Center
Wed 07:46:59 AM 35.8061 -78.7269 223° Southwest 292 336 7,000 -1,283 Descending Washington Center
Wed 07:48:24 AM 35.7328 -78.8161 225° Southwest 253 291 4,900 -1,461 Descending Washington Center
Wed 07:49:31 AM 35.7500 -78.8756 290° West 201 231 3,300 -1,426 Descending Washington Center
Wed 07:50:26 AM 35.7981 -78.8803 355° North 179 206 2,000 -931 Descending Washington Center
Wed 07:51:27 AM 35.8342 -78.8561 28° Northeast 133 153 1,500 -574 Descending Washington Center
Wed 07:52:21 AM 35.8578 -78.8264 46° Northeast 123 142 900 -667 Descending Washington Center
Wed 07:54:00 AM 35.8667 -78.7833 39° Northeast  Level FlightAware Approximate
Wed 08:01:00 AM 35.8776 -78.7875 39° Northeast  Level Estimated
Wed 08:02:00 AM 35.8776 -78.7875 39° Northeast  Level Estimated

Login

Don't have an account? Register now (free) for customized features, flight alerts, and more!